Lees Creek, Ohio
Current Conditions -  °F | °C
As of 11:29 AM on Sunday 21 Dec 2014 (Local Time) from KILN Reporting Station
Haze Haze  
Wind Chill: 24°   Ceiling: 1400
Heat Index: 30°   Visibility: 6mi
Dew Point: 23°   Wind: 6mph
Humidity: 75%   Direction: 120°ESE
Pressure: 30.29"   Gusts: NA
Location:  39.42°N, 83.65°W
Report Text: KILN 211629Z AUTO 12005KT 6SM HZ BKN014 M01/M05 A3029 RMK AO2 T10111050
Loading
Personal Weather Stations






























Interactive Weather Map New forecast layout! Learn more

10-Day Weather Forecast

Advertisements
Track Severe Weather on mobile